Time;durP1;ratioP1;P1;durP2;ratioP2;P2;SDS_P1;SDS_P2;PMS_P1;PMS_P2;Temp;Humidity;BMP_temperature;BMP_pressure;BME280_temperature;BME280_humidity;BME280_pressure;Samples;Min_cycle;Max_cycle;Signal;HPM_P1;HPM_P2
2023/08/30 00:02:20;;;;;;;19.33;18.53;;;15.60;65.50;;;;;;4867244;29;20490;-85
2023/08/30 00:05:00;;;;;;;20.40;19.40;;;15.60;99.90;;;;;;4862356;29;20573;-86
2023/08/30 00:07:39;;;;;;;19.17;18.33;;;15.60;1.00;;;;;;4866997;29;20574;-86
2023/08/30 00:10:17;;;;;;;19.30;18.53;;;15.60;1.00;;;;;;4864747;29;20460;-87
2023/08/30 00:12:51;;;;;;;19.38;18.58;;;15.60;1.00;;;;;;4866807;29;20493;-87
2023/08/30 00:15:29;;;;;;;18.47;17.77;;;15.60;73.10;;;;;;4867463;29;20238;-86
2023/08/30 00:18:07;;;;;;;19.47;18.67;;;15.70;10.10;;;;;;4864172;29;20565;-88
2023/08/30 00:20:43;;;;;;;18.53;17.83;;;15.70;1.00;;;;;;4866241;29;20477;-85
2023/08/30 00:23:16;;;;;;;19.53;18.70;;;15.70;99.90;;;;;;4865756;29;20918;-86
2023/08/30 00:25:53;;;;;;;19.30;18.30;;;15.70;99.90;;;;;;4869549;29;20534;-86
2023/08/30 00:28:24;;;;;;;19.23;18.23;;;15.70;99.90;;;;;;4876815;29;20477;-86
2023/08/30 00:31:01;;;;;;;19.50;18.50;;;15.60;99.90;;;;;;4871768;29;21280;-87
2023/08/30 00:33:45;;;;;;;19.23;18.23;;;15.60;1.00;;;;;;4870148;29;20477;-86
2023/08/30 00:36:21;;;;;;;19.97;18.97;;;15.60;1.00;;;;;;4869401;29;20542;-86
2023/08/30 00:38:58;;;;;;;19.37;18.50;;;15.60;1.00;;;;;;4873658;29;20460;-86
2023/08/30 00:41:26;;;;;;;19.63;18.83;;;15.50;33.80;;;;;;4866944;29;20578;-85
2023/08/30 00:44:09;;;;;;;19.65;18.80;;;15.60;34.60;;;;;;4866489;29;20311;-88
2023/08/30 00:46:41;;;;;;;19.00;18.20;;;15.60;1.00;;;;;;4873374;29;20201;-85
2023/08/30 00:49:28;;;;;;;20.00;19.17;;;15.60;99.90;;;;;;4867772;29;20464;-86
2023/08/30 00:52:13;;;;;;;19.87;18.93;;;15.60;1.00;;;;;;4870658;29;20545;-86
2023/08/30 00:54:55;;;;;;;20.53;19.43;;;15.60;1.00;;;;;;4872523;29;20835;-87
2023/08/30 00:57:45;;;;;;;19.98;19.17;;;15.60;34.30;;;;;;4864694;29;20620;-86
2023/08/30 01:00:29;;;;;;;20.33;19.43;;;15.60;99.90;;;;;;4865253;29;20222;-86
2023/08/30 01:03:01;;;;;;;19.17;18.33;;;15.60;99.90;;;;;;4869653;29;20488;-85
2023/08/30 01:05:43;;;;;;;19.40;18.60;;;15.60;35.80;;;;;;4865591;29;20471;-86
2023/08/30 01:08:20;;;;;;;19.70;18.70;;;15.60;34.70;;;;;;4870185;29;20920;-86
2023/08/30 01:11:01;;;;;;;20.23;19.33;;;15.60;99.90;;;;;;4868971;29;20459;-86
2023/08/30 01:13:40;;;;;;;19.40;18.30;;;15.60;99.90;;;;;;4882698;29;20459;-86
2023/08/30 01:16:36;;;;;;;20.67;19.67;;;15.50;99.90;;;;;;4871441;29;20470;-86
2023/08/30 01:19:33;;;;;;;20.17;19.17;;;15.60;1.00;;;;;;4875940;29;20497;-85
2023/08/30 01:22:51;;;;;;;20.30;19.30;;;15.50;99.90;;;;;;4868987;29;20485;-86
2023/08/30 01:25:34;;;;;;;20.60;19.40;;;15.50;1.00;;;;;;4869861;29;20515;-84
2023/08/30 01:28:19;;;;;;;20.03;19.03;;;15.50;1.00;;;;;;4866822;29;20471;-87
2023/08/30 01:31:09;;;;;;;20.77;19.77;;;15.40;35.90;;;;;;4867441;29;21109;-86
2023/08/30 01:33:52;;;;;;;20.23;19.33;;;15.50;99.90;;;;;;4870861;29;20882;-86
2023/08/30 01:36:35;;;;;;;21.57;20.40;;;15.40;99.90;;;;;;4860230;29;20461;-86
2023/08/30 01:39:21;;;;;;;20.85;19.90;;;15.40;1.00;;;;;;4867946;29;20882;-86
2023/08/30 01:42:14;;;;;;;18.80;18.00;;;15.40;1.00;;;;;;4866873;29;20220;-86
2023/08/30 01:44:57;;;;;;;19.63;18.57;;;15.40;1.00;;;;;;4870588;29;20465;-85
2023/08/30 01:47:36;;;;;;;19.37;18.47;;;15.30;1.00;;;;;;4867937;29;20548;-86
2023/08/30 01:50:21;;;;;;;19.53;18.60;;;15.30;99.90;;;;;;4870628;29;20558;-86
2023/08/30 01:52:57;;;;;;;19.17;18.33;;;15.40;14.20;;;;;;4865276;29;20525;-86
2023/08/30 01:55:31;;;;;;;20.60;19.40;;;15.40;1.00;;;;;;4871277;29;20473;-86
2023/08/30 01:58:19;;;;;;;19.70;18.70;;;15.30;1.00;;;;;;4866827;29;20464;-87
2023/08/30 02:01:08;;;;;;;19.42;18.42;;;15.20;33.50;;;;;;4868115;29;21107;-85
2023/08/30 02:03:40;;;;;;;20.10;19.10;;;15.20;1.00;;;;;;4867043;29;20229;-87
2023/08/30 02:06:25;;;;;;;20.70;19.50;;;15.30;99.90;;;;;;4867551;29;20461;-85
2023/08/30 02:09:11;;;;;;;19.80;18.90;;;15.30;99.90;;;;;;4866223;29;20469;-85
2023/08/30 02:17:59;;;;;;;19.63;18.67;;;15.30;1.00;;;;;;4869554;29;20972;-86
2023/08/30 02:20:46;;;;;;;20.43;19.43;;;15.30;99.90;;;;;;4864832;29;20638;-85
2023/08/30 02:23:28;;;;;;;20.63;19.63;;;15.30;1.00;;;;;;4865460;29;20979;-85
2023/08/30 02:26:13;;;;;;;19.43;18.53;;;15.20;1.00;;;;;;4865488;29;20466;-85
2023/08/30 02:35:17;;;;;;;20.60;19.60;;;15.20;1.00;;;;;;4877983;29;20475;-85
2023/08/30 02:38:16;;;;;;;21.00;19.83;;;15.10;1.00;;;;;;4865105;29;20523;-86
2023/08/30 02:41:06;;;;;;;21.10;19.90;;;15.10;99.90;;;;;;4865839;29;20470;-85
2023/08/30 02:43:59;;;;;;;21.27;20.20;;;15.10;1.00;;;;;;4866182;29;20992;-85
2023/08/30 02:47:02;;;;;;;20.57;19.57;;;15.00;66.30;;;;;;4863283;29;20568;-87
2023/08/30 02:50:12;;;;;;;21.40;20.30;;;15.00;99.90;;;;;;4872054;29;20458;-86
2023/08/30 02:53:08;;;;;;;20.60;19.60;;;14.90;99.90;;;;;;4868259;29;20587;-86
2023/08/30 02:55:55;;;;;;;20.10;19.20;;;14.90;99.90;;;;;;4869002;29;20459;-87
2023/08/30 02:58:37;;;;;;;20.67;19.67;;;14.90;99.90;;;;;;4868086;29;20219;-87
2023/08/30 03:01:22;;;;;;;20.60;19.60;;;14.90;99.90;;;;;;4867904;29;20461;-87
2023/08/30 03:04:24;;;;;;;21.10;20.00;;;14.90;99.90;;;;;;4869530;29;22181;-87
2023/08/30 03:07:24;;;;;;;21.73;20.43;;;14.90;99.90;;;;;;4870721;29;20466;-87
2023/08/30 03:10:09;;;;;;;22.10;20.40;;;14.90;99.90;;;;;;4871524;29;20468;-87
2023/08/30 03:12:53;;;;;;;22.27;20.17;;;14.90;99.90;;;;;;4867578;29;20495;-87
2023/08/30 03:15:54;;;;;;;20.97;19.97;;;14.90;99.90;;;;;;4868951;29;20806;-87
2023/08/30 03:19:10;;;;;;;20.37;19.37;;;14.90;35.00;;;;;;4864776;29;20537;-88
2023/08/30 03:22:10;;;;;;;21.10;19.73;;;14.90;99.90;;;;;;4866921;29;20514;-87
2023/08/30 03:28:18;;;;;;;20.93;19.93;;;14.90;55.70;;;;;;4870336;29;20471;-87
2023/08/30 03:31:09;;;;;;;20.90;19.67;;;14.90;99.90;;;;;;4867511;29;20563;-87
2023/08/30 03:33:58;;;;;;;20.70;19.70;;;14.90;1.00;;;;;;4866629;29;20507;-87
2023/08/30 03:36:56;;;;;;;20.30;19.30;;;14.90;1.00;;;;;;4867201;29;20571;-88
2023/08/30 03:39:48;;;;;;;20.13;19.13;;;14.90;89.10;;;;;;4870040;29;20492;-87
2023/08/30 03:42:39;;;;;;;21.13;19.93;;;14.90;99.90;;;;;;4869037;29;20485;-87
2023/08/30 03:45:36;;;;;;;19.70;18.67;;;14.90;8.30;;;;;;4869696;29;20487;-86
2023/08/30 03:48:26;;;;;;;19.13;18.23;;;14.90;1.00;;;;;;4868947;29;20847;-86
2023/08/30 03:54:41;;;;;;;18.88;17.90;;;14.90;77.00;;;;;;4867758;29;20494;-86
2023/08/30 03:57:22;;;;;;;19.47;18.57;;;14.80;99.90;;;;;;4866545;29;20213;-86
2023/08/30 04:00:31;;;;;;;19.53;18.53;;;14.80;92.60;;;;;;4865846;29;20463;-87
2023/08/30 04:03:13;;;;;;;20.70;19.60;;;14.80;99.90;;;;;;4867910;29;20525;-87
2023/08/30 04:06:23;;;;;;;19.60;18.70;;;14.70;1.00;;;;;;4874269;29;20465;-87
2023/08/30 04:09:13;;;;;;;23.65;22.25;;;14.80;99.90;;;;;;4874901;29;20548;-86
2023/08/30 04:12:17;;;;;;;20.30;19.30;;;14.90;99.90;;;;;;4866966;29;20346;-87
2023/08/30 04:14:58;;;;;;;19.88;18.92;;;14.90;1.00;;;;;;4875570;29;20536;-87
2023/08/30 04:18:03;;;;;;;19.43;18.53;;;14.90;1.00;;;;;;4887661;29;20197;-87
2023/08/30 04:20:55;;;;;;;21.17;20.00;;;15.00;99.90;;;;;;4870166;29;20464;-86
2023/08/30 04:23:43;;;;;;;20.48;19.42;;;15.00;1.00;;;;;;4868946;29;20456;-85
2023/08/30 04:26:39;;;;;;;20.83;19.63;;;15.10;1.00;;;;;;4868509;29;20204;-87
2023/08/30 04:29:24;;;;;;;20.57;19.57;;;15.10;1.00;;;;;;4881081;29;20494;-87
2023/08/30 04:32:18;;;;;;;20.37;19.37;;;15.00;99.90;;;;;;4867916;29;20851;-87
2023/08/30 04:35:20;;;;;;;19.40;18.50;;;15.00;99.90;;;;;;4883894;29;20481;-87
2023/08/30 04:38:11;;;;;;;19.43;18.60;;;14.90;99.90;;;;;;4867405;29;20470;-87
2023/08/30 04:41:11;;;;;;;20.97;19.77;;;14.90;99.90;;;;;;4862539;29;20465;-87
2023/08/30 04:44:12;;;;;;;20.70;19.70;;;14.90;99.90;;;;;;4872952;29;20489;-87
2023/08/30 04:47:03;;;;;;;20.50;19.30;;;14.90;1.00;;;;;;4866421;29;20461;-87
2023/08/30 04:49:47;;;;;;;20.53;19.43;;;14.90;99.90;;;;;;4868163;29;20509;-86
2023/08/30 04:59:06;;;;;;;20.38;19.17;;;14.80;99.90;;;;;;4864992;29;20547;-86
2023/08/30 05:01:55;;;;;;;20.07;19.00;;;14.80;1.00;;;;;;4867401;29;20228;-86
2023/08/30 05:04:46;;;;;;;20.13;19.00;;;14.90;99.90;;;;;;4873060;29;20464;-84
2023/08/30 05:07:49;;;;;;;20.40;19.40;;;14.90;1.00;;;;;;4867096;29;20957;-85
2023/08/30 05:10:54;;;;;;;20.03;19.00;;;14.90;99.90;;;;;;4867337;29;20456;-85
2023/08/30 05:13:41;;;;;;;19.30;18.40;;;14.90;99.90;;;;;;4870093;29;20483;-84
2023/08/30 05:16:17;;;;;;;19.60;18.70;;;14.90;99.90;;;;;;4865924;29;20221;-86
2023/08/30 05:19:01;;;;;;;21.00;20.00;;;14.80;99.90;;;;;;4866188;29;20464;-83
2023/08/30 05:21:43;;;;;;;21.13;20.07;;;14.80;1.00;;;;;;4867526;29;20482;-84
2023/08/30 05:24:23;;;;;;;21.30;20.20;;;14.80;99.90;;;;;;4871757;29;21036;-84
2023/08/30 05:27:06;;;;;;;21.23;20.07;;;14.80;99.90;;;;;;4864606;29;20719;-83
2023/08/30 05:29:59;;;;;;;22.10;21.00;;;14.70;99.90;;;;;;4862726;29;20466;-83
2023/08/30 05:32:31;;;;;;;20.93;19.90;;;14.70;99.90;;;;;;4864543;29;20503;-84
2023/08/30 05:35:05;;;;;;;22.55;21.35;;;14.60;1.00;;;;;;4864286;29;20464;-83
2023/08/30 05:37:54;;;;;;;20.87;19.77;;;14.60;1.00;;;;;;4866856;29;20344;-84
2023/08/30 05:40:36;;;;;;;21.33;20.23;;;14.70;99.90;;;;;;4865883;29;20520;-84
2023/08/30 05:43:15;;;;;;;21.50;20.40;;;14.80;99.90;;;;;;4862952;29;20516;-86
2023/08/30 05:45:50;;;;;;;21.30;20.20;;;14.70;99.90;;;;;;4869578;29;20463;-81
2023/08/30 05:48:36;;;;;;;21.77;20.70;;;14.60;99.90;;;;;;4863515;29;20480;-84
2023/08/30 05:51:12;;;;;;;21.60;20.50;;;14.60;1.00;;;;;;4862138;29;20462;-84
2023/08/30 05:53:59;;;;;;;21.47;20.27;;;14.80;1.00;;;;;;4856022;29;20567;-84
2023/08/30 05:57:01;;;;;;;21.30;20.13;;;14.70;1.00;;;;;;4864523;29;20462;-88
2023/08/30 06:00:17;;;;;;;21.27;20.10;;;14.80;1.00;;;;;;4868629;29;20462;-89
2023/08/30 06:03:32;;;;;;;22.20;21.00;;;14.90;83.40;;;;;;4861175;29;20493;-89
2023/08/30 06:09:52;;;;;;;20.90;19.80;;;15.00;99.90;;;;;;4867447;29;20460;-86
2023/08/30 06:12:46;;;;;;;21.03;20.03;;;15.10;1.00;;;;;;4868939;29;20504;-85
2023/08/30 06:15:47;;;;;;;20.17;19.17;;;15.10;1.00;;;;;;4866616;29;20550;-88
2023/08/30 06:19:11;;;;;;;;;;;;;;;;;;;;;
2023/08/30 06:22:30;;;;;;;19.90;19.00;;;15.20;99.90;;;;;;4865774;29;20489;-86
2023/08/30 06:25:17;;;;;;;20.07;19.07;;;15.10;99.90;;;;;;4864317;29;20464;-87
2023/08/30 06:28:22;;;;;;;20.87;19.77;;;15.10;1.00;;;;;;4869615;29;20468;-87
2023/08/30 06:31:55;;;;;;;20.33;19.27;;;15.10;1.00;;;;;;4883087;29;20499;-88
2023/08/30 06:34:57;;;;;;;;;;;;;;;;;;;;;
2023/08/30 06:38:12;;;;;;;20.07;19.07;;;15.10;99.90;;;;;;4873945;29;20568;-87
2023/08/30 06:41:06;;;;;;;19.70;18.70;;;15.00;99.90;;;;;;4887009;29;20469;-85
2023/08/30 06:44:14;;;;;;;19.43;18.43;;;15.10;99.90;;;;;;4870031;29;21052;-86
2023/08/30 06:47:32;;;;;;;19.90;19.00;;;15.10;1.00;;;;;;4867383;29;20466;-87
2023/08/30 06:50:17;;;;;;;19.47;18.57;;;15.20;1.00;;;;;;4868918;29;20551;-86
2023/08/30 06:53:09;;;;;;;19.40;18.60;;;15.10;1.00;;;;;;4865410;29;20471;-87
2023/08/30 06:56:06;;;;;;;19.80;18.70;;;15.10;1.00;;;;;;4870077;29;20501;-87
2023/08/30 06:59:21;;;;;;;19.67;18.67;;;15.20;1.00;;;;;;4867262;29;20445;-87
2023/08/30 07:02:21;;;;;;;19.47;18.57;;;15.10;23.20;;;;;;4867741;29;20931;-86
2023/08/30 07:05:12;;;;;;;20.27;19.37;;;15.20;1.00;;;;;;4875717;29;20461;-86
2023/08/30 07:08:05;;;;;;;19.43;18.53;;;15.30;99.90;;;;;;4867939;29;20455;-86
2023/08/30 07:10:57;;;;;;;20.07;19.07;;;15.20;1.00;;;;;;4868194;29;20492;-87
2023/08/30 07:16:46;;;;;;;20.63;19.57;;;15.30;99.90;;;;;;4882194;29;20508;-89
2023/08/30 07:19:35;;;;;;;19.83;18.93;;;15.30;1.00;;;;;;4877313;29;20465;-88
2023/08/30 07:22:33;;;;;;;19.23;18.30;;;15.30;1.00;;;;;;4872329;29;20595;-87
2023/08/30 07:25:21;;;;;;;20.23;19.33;;;15.40;99.90;;;;;;4871293;29;20458;-87
2023/08/30 07:28:23;;;;;;;19.67;18.67;;;15.40;1.00;;;;;;4848931;29;20463;-86
2023/08/30 07:31:26;;;;;;;20.17;19.20;;;15.40;1.00;;;;;;4866122;29;20564;-87
2023/08/30 07:34:22;;;;;;;19.27;18.30;;;15.40;99.90;;;;;;4868916;29;20485;-87
2023/08/30 07:37:49;;;;;;;19.45;18.58;;;15.40;1.00;;;;;;4871395;29;20471;-86
2023/08/30 07:40:30;;;;;;;19.03;18.23;;;15.50;99.90;;;;;;4874792;29;20217;-86
2023/08/30 07:43:24;;;;;;;19.40;18.50;;;15.50;1.00;;;;;;4873191;29;20485;-86
2023/08/30 07:46:20;;;;;;;19.10;18.00;;;15.50;99.90;;;;;;4871152;29;20441;-86
2023/08/30 07:49:11;;;;;;;19.00;18.20;;;15.50;1.00;;;;;;4873669;29;20462;-87
2023/08/30 07:52:05;;;;;;;18.57;17.77;;;15.60;1.00;;;;;;4869627;29;20608;-86
2023/08/30 07:55:12;;;;;;;19.50;18.60;;;15.50;1.00;;;;;;4874002;29;20596;-87
2023/08/30 07:58:17;;;;;;;20.25;19.15;;;15.40;1.00;;;;;;4872401;29;20484;-89
2023/08/30 08:04:28;;;;;;;19.90;19.00;;;15.60;99.90;;;;;;4872093;29;20478;-85
2023/08/30 08:07:14;;;;;;;19.60;18.70;;;15.60;99.90;;;;;;4870363;29;20908;-87
2023/08/30 08:10:43;;;;;;;19.13;18.30;;;15.50;99.90;;;;;;4869720;29;20467;-86
2023/08/30 08:13:58;;;;;;;18.43;17.63;;;15.60;1.00;;;;;;4880972;29;20470;-85
2023/08/30 08:16:55;;;;;;;19.83;18.92;;;15.60;1.00;;;;;;4878057;29;20562;-86
2023/08/30 08:19:56;;;;;;;19.63;18.73;;;15.60;99.90;;;;;;4871033;29;20198;-86
2023/08/30 08:23:03;;;;;;;18.88;18.00;;;15.70;99.90;;;;;;4872721;29;20487;-87
2023/08/30 08:26:47;;;;;;;18.30;17.50;;;15.80;1.00;;;;;;4873425;29;20213;-87
2023/08/30 08:29:31;;;;;;;19.30;18.50;;;16.00;1.00;;;;;;4872359;29;20459;-87
2023/08/30 08:32:30;;;;;;;18.63;17.83;;;16.10;1.00;;;;;;4871554;29;20498;-88
2023/08/30 08:35:39;;;;;;;20.07;19.07;;;16.10;99.90;;;;;;4880597;29;20481;-88
2023/08/30 08:38:31;;;;;;;18.87;18.07;;;15.90;1.00;;;;;;4876092;29;20478;-89
2023/08/30 08:41:28;;;;;;;19.27;18.37;;;16.10;99.90;;;;;;4872914;29;20465;-87
2023/08/30 08:44:25;;;;;;;18.10;17.40;;;16.10;1.00;;;;;;4871870;29;20550;-86
2023/08/30 08:47:22;;;;;;;19.77;18.77;;;16.20;1.00;;;;;;4867211;29;20526;-86
2023/08/30 08:50:09;;;;;;;19.17;18.33;;;16.30;25.50;;;;;;4871843;29;20983;-87
2023/08/30 08:53:34;;;;;;;19.33;18.33;;;16.40;1.00;;;;;;4870836;29;21004;-90
2023/08/30 08:56:35;;;;;;;19.50;18.60;;;16.50;1.00;;;;;;4872016;29;21012;-87
2023/08/30 08:59:22;;;;;;;20.07;19.10;;;16.60;99.90;;;;;;4865674;29;20471;-87
2023/08/30 09:02:12;;;;;;;19.77;18.97;;;16.50;99.90;;;;;;4867341;29;20484;-87
2023/08/30 09:05:13;;;;;;;19.17;18.27;;;16.50;3.70;;;;;;4868135;29;20470;-86
2023/08/30 09:08:26;;;;;;;18.63;17.73;;;16.60;99.90;;;;;;4872322;29;20462;-87
2023/08/30 09:11:21;;;;;;;19.10;18.30;;;16.70;1.00;;;;;;4868907;29;20467;-85
2023/08/30 09:14:32;;;;;;;19.07;18.17;;;16.70;1.00;;;;;;4871305;29;20204;-86
2023/08/30 09:17:17;;;;;;;18.43;17.73;;;16.70;99.90;;;;;;4869854;29;20487;-86
2023/08/30 09:20:27;;;;;;;18.60;17.90;;;16.90;99.90;;;;;;4865093;29;20487;-86
2023/08/30 09:23:21;;;;;;;19.20;18.40;;;17.00;99.90;;;;;;4869503;29;20317;-86
2023/08/30 09:26:24;;;;;;;18.80;17.87;;;17.10;99.90;;;;;;4870529;29;21264;-87
2023/08/30 09:29:20;;;;;;;18.00;17.30;;;17.20;99.90;;;;;;4868847;29;20453;-86
2023/08/30 09:35:53;;;;;;;18.03;17.23;;;17.50;1.00;;;;;;4869959;29;20492;-87
2023/08/30 09:38:52;;;;;;;17.10;16.40;;;17.60;1.00;;;;;;4869056;29;20886;-87
2023/08/30 09:41:38;;;;;;;17.30;16.70;;;17.60;1.00;;;;;;4872235;29;20472;-87
2023/08/30 09:44:38;;;;;;;18.27;17.58;;;17.70;1.00;;;;;;4881615;29;20574;-87
2023/08/30 09:47:29;;;;;;;18.15;17.45;;;17.80;99.90;;;;;;4869677;29;20263;-88
2023/08/30 09:50:29;;;;;;;18.23;17.50;;;18.00;99.90;;;;;;4866677;29;20303;-87
2023/08/30 09:53:34;;;;;;;17.20;16.60;;;18.10;99.90;;;;;;4868780;29;20471;-87
2023/08/30 09:57:07;;;;;;;;;;;;;;;;;;;;;
2023/08/30 10:00:12;;;;;;;17.97;17.20;;;18.30;99.90;;;;;;4871986;29;20488;-86
2023/08/30 10:06:29;;;;;;;16.73;16.20;;;18.40;99.90;;;;;;4877428;29;20824;-86
2023/08/30 10:09:30;;;;;;;17.15;16.55;;;18.50;99.90;;;;;;4871656;29;20847;-87
2023/08/30 10:12:45;;;;;;;16.73;16.17;;;18.60;99.90;;;;;;4873499;29;20287;-87
2023/08/30 10:16:04;;;;;;;17.50;16.80;;;18.70;1.00;;;;;;4866198;29;20219;-87
2023/08/30 10:18:42;;;;;;;15.33;14.93;;;18.70;1.00;;;;;;4868436;29;20948;-87
2023/08/30 10:22:19;;;;;;;15.95;15.35;;;18.60;1.00;;;;;;4870124;29;20521;-88
2023/08/30 10:25:27;;;;;;;15.50;15.00;;;18.70;1.00;;;;;;4869424;29;20207;-89
2023/08/30 10:29:09;;;;;;;;;;;;;;;;;;;;;
2023/08/30 10:32:11;;;;;;;15.93;15.33;;;18.60;1.00;;;;;;4866558;29;20583;-87
2023/08/30 10:35:11;;;;;;;15.23;14.63;;;18.50;1.00;;;;;;4872191;29;20456;-86
2023/08/30 10:41:20;;;;;;;14.83;14.37;;;18.70;1.00;;;;;;4873753;29;20467;-86
2023/08/30 10:44:06;;;;;;;15.73;15.23;;;18.70;1.00;;;;;;4871142;29;21060;-86
2023/08/30 10:46:49;;;;;;;16.20;15.60;;;18.60;1.00;;;;;;4870097;29;20445;-85
2023/08/30 10:49:53;;;;;;;15.50;15.00;;;18.70;1.00;;;;;;4870587;29;20510;-87
2023/08/30 10:53:05;;;;;;;15.00;14.50;;;18.80;99.90;;;;;;4871391;29;20502;-85
2023/08/30 10:56:30;;;;;;;15.37;14.93;;;19.00;99.90;;;;;;4867673;29;20203;-89
2023/08/30 10:59:30;;;;;;;16.60;15.38;;;19.10;99.90;;;;;;4868436;29;20452;-87
2023/08/30 11:02:27;;;;;;;15.73;15.23;;;19.20;99.90;;;;;;4871487;29;20258;-87
2023/08/30 11:05:33;;;;;;;16.10;15.32;;;19.30;99.90;;;;;;4870607;29;20474;-85
2023/08/30 11:08:30;;;;;;;15.50;15.00;;;19.40;99.90;;;;;;4871887;29;20260;-87
2023/08/30 11:14:52;;;;;;;14.60;14.10;;;19.30;99.90;;;;;;4867542;29;20482;-88
2023/08/30 11:17:32;;;;;;;14.90;14.50;;;19.50;99.90;;;;;;4864922;29;20881;-87
2023/08/30 11:20:24;;;;;;;14.90;14.40;;;19.60;99.90;;;;;;4867918;29;20458;-87
2023/08/30 11:23:06;;;;;;;15.50;15.00;;;19.60;99.90;;;;;;4866599;29;20491;-88
2023/08/30 11:26:26;;;;;;;14.87;14.37;;;19.60;99.90;;;;;;4864390;29;20470;-88
2023/08/30 11:30:08;;;;;;;14.30;13.90;;;19.50;99.90;;;;;;4856815;29;20476;-88
2023/08/30 11:39:50;;;;;;;13.50;13.20;;;19.40;99.90;;;;;;4866069;29;20199;-87
2023/08/30 11:42:41;;;;;;;13.70;13.30;;;19.20;99.90;;;;;;4865851;29;20494;-87
2023/08/30 11:46:04;;;;;;;13.83;13.53;;;19.00;99.90;;;;;;4871073;29;20546;-87
2023/08/30 11:48:52;;;;;;;16.00;14.77;;;18.60;99.90;;;;;;4866507;29;20448;-86
2023/08/30 11:57:35;;;;;;;15.97;15.37;;;18.10;99.90;;;;;;4898775;29;20241;-87
2023/08/30 12:00:39;;;;;;;16.80;16.20;;;18.00;1.00;;;;;;4899674;29;20465;-87
2023/08/30 12:03:57;;;;;;;16.80;16.10;;;17.80;1.00;;;;;;4882509;29;21152;-86
2023/08/30 12:07:04;;;;;;;17.37;16.67;;;17.70;95.40;;;;;;4884690;29;20459;-87
2023/08/30 12:13:05;;;;;;;17.47;16.77;;;17.60;21.60;;;;;;4884500;29;20482;-86
2023/08/30 12:16:05;;;;;;;17.97;16.97;;;17.60;1.00;;;;;;4883524;29;20463;-86
2023/08/30 12:19:22;;;;;;;16.97;16.17;;;17.60;99.90;;;;;;4886318;29;20486;-86
2023/08/30 12:22:23;;;;;;;16.23;15.70;;;17.70;99.90;;;;;;4884084;29;21138;-86
2023/08/30 12:25:26;;;;;;;15.90;15.23;;;17.60;1.00;;;;;;4889439;29;20639;-86
2023/08/30 12:28:34;;;;;;;16.02;15.52;;;17.60;1.00;;;;;;4887095;29;20466;-87
2023/08/30 12:31:31;;;;;;;15.55;15.10;;;17.70;1.00;;;;;;4886617;29;20209;-86
2023/08/30 12:34:43;;;;;;;16.13;15.63;;;17.70;99.90;;;;;;4886414;29;20217;-87
2023/08/30 12:41:08;;;;;;;15.83;15.33;;;17.90;99.90;;;;;;4891849;29;20468;-87
2023/08/30 12:44:08;;;;;;;15.70;15.10;;;17.80;99.90;;;;;;4892935;29;20917;-87
2023/08/30 12:47:13;;;;;;;15.70;15.20;;;17.80;1.00;;;;;;4889714;29;20549;-88
2023/08/30 12:50:18;;;;;;;14.93;14.50;;;18.00;99.90;;;;;;4890031;29;20467;-86
2023/08/30 13:00:35;;;;;;;15.63;15.13;;;18.10;99.90;;;;;;4891525;29;20802;-87
2023/08/30 13:03:21;;;;;;;15.47;15.03;;;18.10;99.90;;;;;;4887091;29;20345;-87
2023/08/30 13:06:21;;;;;;;15.37;14.87;;;18.10;99.90;;;;;;4889118;29;20892;-86
2023/08/30 13:09:15;;;;;;;15.40;14.90;;;18.00;99.90;;;;;;4888009;29;20531;-81
2023/08/30 13:12:16;;;;;;;15.20;14.70;;;18.10;99.90;;;;;;4880714;29;20339;-81
2023/08/30 13:15:08;;;;;;;15.83;15.33;;;18.20;71.80;;;;;;4882714;29;20557;-84
2023/08/30 13:17:55;;;;;;;15.67;15.17;;;18.40;99.90;;;;;;4883650;29;20573;-82
2023/08/30 13:20:48;;;;;;;15.27;14.77;;;18.60;99.90;;;;;;4882224;29;20466;-81
2023/08/30 13:23:41;;;;;;;15.47;14.97;;;18.60;17.70;;;;;;4896029;29;21342;-81
2023/08/30 13:29:24;;;;;;;14.10;13.70;;;18.60;1.00;;;;;;4881812;29;20482;-81
2023/08/30 13:32:13;;;;;;;14.60;14.20;;;18.70;1.00;;;;;;4881585;29;20949;-80
2023/08/30 13:35:14;;;;;;;14.80;14.30;;;18.80;1.00;;;;;;4883850;29;20203;-81
2023/08/30 13:38:02;;;;;;;14.07;13.77;;;18.80;1.00;;;;;;4885003;29;20514;-81
2023/08/30 13:43:40;;;;;;;14.70;14.20;;;19.00;1.00;;;;;;4893152;29;20550;-82
2023/08/30 13:46:20;;;;;;;14.47;14.07;;;18.90;1.00;;;;;;4884087;29;20456;-80
2023/08/30 13:49:08;;;;;;;14.70;14.30;;;18.90;99.90;;;;;;4882389;29;20456;-80
2023/08/30 13:55:15;;;;;;;14.07;13.67;;;18.90;1.00;;;;;;4892870;29;20455;-80
2023/08/30 13:57:55;;;;;;;14.80;14.30;;;19.00;1.00;;;;;;4885945;29;20543;-80
2023/08/30 14:00:40;;;;;;;14.53;14.13;;;19.00;1.00;;;;;;4901726;29;20991;-80
2023/08/30 14:03:09;;;;;;;14.57;14.17;;;19.10;1.00;;;;;;4887823;29;20479;-80
2023/08/30 14:05:49;;;;;;;15.30;14.90;;;19.20;1.00;;;;;;4893890;29;20463;-81
2023/08/30 14:08:20;;;;;;;14.63;14.20;;;19.20;1.00;;;;;;4891010;29;20457;-80
2023/08/30 14:10:48;;;;;;;14.80;14.33;;;19.20;1.00;;;;;;4886587;29;20557;-80
2023/08/30 14:13:22;;;;;;;15.70;15.10;;;19.20;1.00;;;;;;4888906;29;20506;-81
2023/08/30 14:15:50;;;;;;;14.90;14.50;;;19.20;1.00;;;;;;4887097;29;20967;-81
2023/08/30 14:18:18;;;;;;;14.63;14.23;;;19.20;1.00;;;;;;4902736;29;20483;-80
2023/08/30 14:20:51;;;;;;;14.87;14.37;;;19.10;1.00;;;;;;4887969;29;20448;-80
2023/08/30 14:23:23;;;;;;;14.70;14.27;;;19.10;1.00;;;;;;4886714;29;20497;-81
2023/08/30 14:25:57;;;;;;;14.97;14.47;;;19.10;1.00;;;;;;4884172;29;20562;-80
2023/08/30 14:28:47;;;;;;;14.80;14.40;;;19.10;1.00;;;;;;4887179;29;20602;-81
2023/08/30 14:32:09;;;;;;;14.90;14.40;;;19.00;99.90;;;;;;4878352;29;20503;-80
2023/08/30 14:34:52;;;;;;;15.03;14.53;;;18.80;99.90;;;;;;4885377;29;20460;-81
2023/08/30 14:40:41;;;;;;;14.80;14.40;;;18.90;99.90;;;;;;4879160;29;20482;-82
2023/08/30 14:43:28;;;;;;;14.83;14.43;;;18.80;99.90;;;;;;4882278;29;20486;-80
2023/08/30 14:46:26;;;;;;;14.67;14.27;;;18.90;99.90;;;;;;4888857;29;20451;-80
2023/08/30 14:49:17;;;;;;;14.45;14.05;;;18.90;99.90;;;;;;4883913;29;20494;-82
2023/08/30 14:52:22;;;;;;;14.67;14.17;;;18.90;99.90;;;;;;4878160;29;20239;-81
2023/08/30 14:55:00;;;;;;;14.90;14.30;;;19.00;99.90;;;;;;4883584;29;20456;-81
2023/08/30 14:57:46;;;;;;;14.97;14.57;;;19.00;99.90;;;;;;4885116;29;20452;-80
2023/08/30 15:03:25;;;;;;;15.80;15.13;;;18.90;99.90;;;;;;4885590;29;20521;-81
2023/08/30 15:06:19;;;;;;;15.53;14.93;;;19.00;99.90;;;;;;4884976;29;21158;-82
2023/08/30 15:09:18;;;;;;;15.37;14.77;;;19.00;99.90;;;;;;4885823;29;20460;-80
2023/08/30 15:12:01;;;;;;;15.67;15.10;;;19.00;99.90;;;;;;4884083;29;20476;-81
2023/08/30 15:15:02;;;;;;;15.17;14.67;;;19.10;99.90;;;;;;4881692;29;20929;-80
2023/08/30 15:17:40;;;;;;;16.17;15.47;;;19.10;99.90;;;;;;4887359;29;20446;-80
2023/08/30 15:20:36;;;;;;;15.13;14.63;;;19.10;99.90;;;;;;4883762;29;20458;-78
2023/08/30 15:23:50;;;;;;;15.57;15.13;;;19.10;99.90;;;;;;4886794;29;20488;-80
2023/08/30 15:27:00;;;;;;;14.60;14.20;;;19.00;99.90;;;;;;4886585;29;20461;-82
2023/08/30 15:29:57;;;;;;;15.00;14.60;;;19.10;99.90;;;;;;4880870;29;20482;-83
2023/08/30 15:32:54;;;;;;;15.20;14.60;;;19.20;99.90;;;;;;4880661;29;20488;-81
2023/08/30 15:35:59;;;;;;;14.80;14.30;;;19.20;99.90;;;;;;4885480;29;20468;-81
2023/08/30 15:38:52;;;;;;;14.90;14.40;;;19.20;99.90;;;;;;4883676;29;20506;-81
2023/08/30 15:41:31;;;;;;;15.27;14.73;;;19.30;99.90;;;;;;4883465;29;20548;-81
2023/08/30 15:44:17;;;;;;;15.90;15.30;;;19.30;99.90;;;;;;4883668;29;20213;-81
2023/08/30 15:47:13;;;;;;;15.77;15.25;;;19.40;99.90;;;;;;4887267;29;20456;-82
2023/08/30 15:50:22;;;;;;;15.93;15.20;;;19.40;99.90;;;;;;4883578;29;20215;-82
2023/08/30 15:53:23;;;;;;;15.63;15.23;;;19.40;99.90;;;;;;4885062;29;20246;-81
2023/08/30 15:59:04;;;;;;;15.48;14.98;;;19.40;99.90;;;;;;4887681;29;20868;-81
2023/08/30 16:02:13;;;;;;;15.70;15.10;;;19.30;99.90;;;;;;4884330;29;20959;-81
2023/08/30 16:05:00;;;;;;;15.20;14.80;;;19.40;99.90;;;;;;4887042;29;20470;-82
2023/08/30 16:07:53;;;;;;;14.80;14.40;;;19.40;99.90;;;;;;4887231;29;20540;-81
2023/08/30 16:13:51;;;;;;;15.80;15.30;;;19.50;99.90;;;;;;4888205;29;20965;-81
2023/08/30 16:17:04;;;;;;;16.50;15.73;;;19.50;99.90;;;;;;4887352;29;21029;-81
2023/08/30 16:23:14;;;;;;;15.70;15.20;;;19.40;99.90;;;;;;4889919;29;20582;-81
2023/08/30 16:26:14;;;;;;;16.53;16.03;;;19.30;99.90;;;;;;4887956;29;20961;-81
2023/08/30 16:28:56;;;;;;;15.70;15.20;;;19.20;99.90;;;;;;4892257;29;20503;-82
2023/08/30 16:31:52;;;;;;;16.17;15.67;;;19.10;99.90;;;;;;4888263;29;20596;-82